Time;durP1;ratioP1;P1;durP2;ratioP2;P2;SDS_P1;SDS_P2;PMS_P1;PMS_P2;Temp;Humidity;BMP_temperature;BMP_pressure;BME280_temperature;BME280_humidity;BME280_pressure;Samples;Min_cycle;Max_cycle;Signal;HPM_P1;HPM_P2
2023/06/28 00:01:27;;;;;;;3.45;1.40;;;;;;;;;;5039164;28;20060;-63
2023/06/28 00:03:53;;;;;;;2.65;1.58;;;;;;;;;;5038593;28;20032;-63
2023/06/28 00:06:19;;;;;;;1.45;1.27;;;;;;;;;;5020078;28;20033;-63
2023/06/28 00:08:45;;;;;;;1.30;1.20;;;;;;;;;;5036184;28;20084;-63
2023/06/28 00:11:11;;;;;;;1.48;1.38;;;;;;;;;;5036361;28;20037;-64
2023/06/28 00:13:38;;;;;;;3.13;1.60;;;;;;;;;;5036252;28;20120;-63
2023/06/28 00:16:03;;;;;;;1.42;1.33;;;;;;;;;;5035789;28;20360;-63
2023/06/28 00:18:32;;;;;;;1.83;1.58;;;;;;;;;;5036368;28;20039;-63
2023/06/28 00:20:58;;;;;;;2.90;1.50;;;;;;;;;;5018475;28;20100;-63
2023/06/28 00:23:24;;;;;;;2.65;1.55;;;;;;;;;;5018210;28;20498;-63
2023/06/28 00:25:49;;;;;;;2.45;1.88;;;;;;;;;;5018551;28;20017;-63
2023/06/28 00:28:15;;;;;;;1.70;1.60;;;;;;;;;;5036155;28;20423;-63
2023/06/28 00:30:41;;;;;;;3.95;1.42;;;;;;;;;;5017959;28;20081;-63
2023/06/28 00:33:06;;;;;;;3.33;1.25;;;;;;;;;;5035843;28;20128;-67
2023/06/28 00:35:32;;;;;;;1.60;1.50;;;;;;;;;;5001652;28;20485;-67
2023/06/28 00:37:57;;;;;;;1.83;1.55;;;;;;;;;;5017915;28;20025;-67
2023/06/28 00:40:25;;;;;;;2.20;1.30;;;;;;;;;;5035174;28;20068;-66
2023/06/28 00:42:50;;;;;;;2.67;1.60;;;;;;;;;;5054265;28;20056;-67
2023/06/28 00:45:16;;;;;;;2.67;1.40;;;;;;;;;;5037740;28;20052;-67
2023/06/28 00:47:42;;;;;;;3.25;1.45;;;;;;;;;;5054415;28;20056;-66
2023/06/28 00:53:43;;;;;;;1.83;1.58;;;;;;;;;;5035026;28;20060;-63
2023/06/28 00:56:09;;;;;;;2.03;1.40;;;;;;;;;;5018953;28;20456;-63
2023/06/28 00:58:36;;;;;;;1.65;1.52;;;;;;;;;;5017172;28;20037;-67
2023/06/28 01:01:02;;;;;;;3.08;1.90;;;;;;;;;;5024543;28;20223;-64
2023/06/28 01:03:28;;;;;;;3.80;1.42;;;;;;;;;;5036419;28;20029;-62
2023/06/28 01:05:57;;;;;;;1.98;1.67;;;;;;;;;;5017184;28;20076;-66
2023/06/28 01:08:23;;;;;;;1.77;1.20;;;;;;;;;;5017412;28;20091;-62
2023/06/28 01:10:49;;;;;;;1.38;1.27;;;;;;;;;;5035170;28;20040;-62
2023/06/28 01:13:15;;;;;;;3.67;1.33;;;;;;;;;;5035354;28;20025;-62
2023/06/28 01:15:41;;;;;;;1.60;1.23;;;;;;;;;;5035512;28;20101;-62
2023/06/28 01:18:09;;;;;;;3.38;1.67;;;;;;;;;;5028529;28;20127;-62
2023/06/28 01:20:34;;;;;;;2.10;1.15;;;;;;;;;;5054531;28;20131;-62
2023/06/28 01:23:01;;;;;;;1.50;1.40;;;;;;;;;;5054777;28;20162;-62
2023/06/28 01:25:26;;;;;;;1.50;1.40;;;;;;;;;;5054798;28;20058;-62
2023/06/28 01:27:53;;;;;;;3.15;1.67;;;;;;;;;;5053625;28;20036;-64
2023/06/28 01:30:23;;;;;;;1.65;1.50;;;;;;;;;;5036854;28;20115;-63
2023/06/28 01:32:49;;;;;;;3.42;1.50;;;;;;;;;;5037293;28;20029;-63
2023/06/28 01:35:14;;;;;;;3.33;1.50;;;;;;;;;;5054987;28;20036;-64
2023/06/28 01:37:39;;;;;;;1.40;1.33;;;;;;;;;;5054624;28;20072;-62
2023/06/28 01:40:06;;;;;;;2.20;2.00;;;;;;;;;;5054725;28;20052;-62
2023/06/28 01:42:33;;;;;;;1.85;1.38;;;;;;;;;;5036459;28;20017;-63
2023/06/28 01:44:59;;;;;;;4.15;1.60;;;;;;;;;;5054757;28;20067;-63
2023/06/28 01:47:25;;;;;;;1.90;1.17;;;;;;;;;;5054368;28;20044;-63
2023/06/28 01:49:51;;;;;;;2.00;1.55;;;;;;;;;;5036894;28;20486;-63
2023/06/28 01:52:18;;;;;;;2.03;1.58;;;;;;;;;;5054434;28;20024;-63
2023/06/28 01:54:43;;;;;;;1.63;1.52;;;;;;;;;;5053740;28;20112;-64
2023/06/28 01:57:09;;;;;;;2.58;1.60;;;;;;;;;;5054187;28;20076;-63
2023/06/28 01:59:35;;;;;;;3.15;1.60;;;;;;;;;;5036343;28;20033;-67
2023/06/28 02:02:00;;;;;;;4.07;1.83;;;;;;;;;;5040448;28;20033;-67
2023/06/28 02:04:25;;;;;;;3.10;1.70;;;;;;;;;;5035992;28;20033;-68
2023/06/28 02:06:52;;;;;;;2.45;1.88;;;;;;;;;;5044170;28;20040;-68
2023/06/28 02:09:17;;;;;;;6.60;1.70;;;;;;;;;;5033767;28;20033;-66
2023/06/28 02:11:42;;;;;;;1.70;1.33;;;;;;;;;;5027064;28;20472;-65
2023/06/28 02:14:08;;;;;;;1.40;1.27;;;;;;;;;;5035991;28;20032;-65
2023/06/28 02:16:33;;;;;;;1.45;1.35;;;;;;;;;;5033897;28;20033;-65
2023/06/28 02:19:00;;;;;;;1.60;1.50;;;;;;;;;;5045293;28;20456;-63
2023/06/28 02:21:25;;;;;;;1.98;1.40;;;;;;;;;;5034107;28;20033;-63
2023/06/28 02:23:51;;;;;;;1.98;1.50;;;;;;;;;;5047721;28;20040;-63
2023/06/28 02:26:16;;;;;;;1.70;1.58;;;;;;;;;;5054285;28;20039;-64
2023/06/28 02:28:42;;;;;;;1.67;1.58;;;;;;;;;;5053960;28;20092;-62
2023/06/28 02:31:07;;;;;;;2.28;1.88;;;;;;;;;;5036051;28;20039;-64
2023/06/28 02:33:32;;;;;;;1.75;1.65;;;;;;;;;;5053729;28;20025;-63
2023/06/28 02:35:58;;;;;;;2.33;1.50;;;;;;;;;;5040793;28;20464;-63
2023/06/28 02:38:23;;;;;;;2.70;1.50;;;;;;;;;;5033343;28;20025;-63
2023/06/28 02:40:49;;;;;;;1.92;1.48;;;;;;;;;;5033816;28;20083;-63
2023/06/28 02:43:14;;;;;;;1.63;1.38;;;;;;;;;;5015882;28;20483;-63
2023/06/28 02:45:39;;;;;;;3.08;1.65;;;;;;;;;;5015758;28;20018;-63
2023/06/28 02:48:05;;;;;;;2.40;1.67;;;;;;;;;;5033477;28;20030;-63
2023/06/28 02:50:30;;;;;;;3.38;1.42;;;;;;;;;;5034139;28;20037;-63
2023/06/28 02:53:06;;;;;;;2.47;1.92;;;;;;;;;;5016147;28;20490;-63
2023/06/28 02:55:31;;;;;;;3.65;2.17;;;;;;;;;;5016439;28;20033;-63
2023/06/28 02:58:02;;;;;;;1.98;1.77;;;;;;;;;;5000458;28;20034;-63
2023/06/28 03:00:27;;;;;;;2.10;1.95;;;;;;;;;;5016209;28;20038;-62
2023/06/28 03:02:53;;;;;;;2.45;2.20;;;;;;;;;;4999160;28;20547;-63
2023/06/28 03:05:20;;;;;;;5.25;2.33;;;;;;;;;;5018424;28;20383;-63
2023/06/28 03:07:45;;;;;;;3.97;2.30;;;;;;;;;;5019603;28;20037;-63
2023/06/28 03:10:10;;;;;;;1.80;1.55;;;;;;;;;;5037760;28;20044;-63
2023/06/28 03:12:36;;;;;;;2.03;1.92;;;;;;;;;;5003329;28;20092;-61
2023/06/28 03:15:01;;;;;;;1.90;1.80;;;;;;;;;;5037165;28;20022;-62
2023/06/28 03:17:27;;;;;;;2.42;2.20;;;;;;;;;;5019902;28;20024;-63
2023/06/28 03:19:52;;;;;;;3.53;2.10;;;;;;;;;;5003394;28;20118;-64
2023/06/28 03:22:17;;;;;;;2.17;2.00;;;;;;;;;;5003129;28;20041;-66
2023/06/28 03:24:43;;;;;;;3.28;1.50;;;;;;;;;;5019614;28;20036;-66
2023/06/28 03:27:08;;;;;;;4.50;2.00;;;;;;;;;;5019304;28;20357;-66
2023/06/28 03:29:34;;;;;;;3.08;2.35;;;;;;;;;;5037077;28;20021;-64
2023/06/28 03:32:00;;;;;;;1.85;1.75;;;;;;;;;;5019120;28;20498;-67
2023/06/28 03:34:25;;;;;;;2.50;1.65;;;;;;;;;;5018977;28;20112;-67
2023/06/28 03:36:53;;;;;;;2.00;1.83;;;;;;;;;;5018916;28;20017;-69
2023/06/28 03:39:19;;;;;;;2.30;1.58;;;;;;;;;;5019202;28;20018;-66
2023/06/28 03:41:44;;;;;;;1.75;1.50;;;;;;;;;;5036814;28;20060;-65
2023/06/28 03:44:10;;;;;;;5.05;1.90;;;;;;;;;;5019224;28;20095;-65
2023/06/28 03:46:35;;;;;;;4.10;2.38;;;;;;;;;;5018764;28;20080;-66
2023/06/28 03:49:02;;;;;;;5.22;4.78;;;;;;;;;;5019046;28;20021;-65
2023/06/28 03:51:29;;;;;;;8.20;5.28;;;;;;;;;;5019306;28;20021;-68
2023/06/28 03:53:55;;;;;;;5.60;4.60;;;;;;;;;;5019071;28;20030;-68
2023/06/28 03:56:20;;;;;;;6.38;5.65;;;;;;;;;;5019191;28;20422;-69
2023/06/28 03:58:49;;;;;;;6.72;5.72;;;;;;;;;;5002663;28;20033;-66
2023/06/28 04:01:15;;;;;;;5.87;4.47;;;;;;;;;;5019322;28;20044;-65
2023/06/28 04:03:45;;;;;;;4.07;3.10;;;;;;;;;;5018736;28;20388;-68
2023/06/28 04:06:10;;;;;;;3.30;3.00;;;;;;;;;;5036747;28;20547;-68
2023/06/28 04:08:35;;;;;;;3.85;2.67;;;;;;;;;;5018448;28;20300;-63
2023/06/28 04:11:01;;;;;;;3.15;2.85;;;;;;;;;;5032555;28;20048;-66
2023/06/28 04:13:26;;;;;;;3.47;2.42;;;;;;;;;;5005952;28;20017;-63
2023/06/28 04:15:52;;;;;;;3.65;2.65;;;;;;;;;;5023594;28;20402;-66
2023/06/28 04:18:20;;;;;;;3.47;2.47;;;;;;;;;;5021306;28;20042;-62
2023/06/28 04:20:45;;;;;;;3.40;2.33;;;;;;;;;;5026027;28;20037;-62
2023/06/28 04:23:13;;;;;;;2.17;2.03;;;;;;;;;;5018283;28;20032;-62
2023/06/28 04:25:38;;;;;;;2.92;1.90;;;;;;;;;;5017435;28;20101;-62
2023/06/28 04:28:05;;;;;;;2.85;2.15;;;;;;;;;;5022678;28;20034;-62
2023/06/28 04:30:31;;;;;;;2.65;1.98;;;;;;;;;;5039813;23;20064;-63
2023/06/28 04:32:58;;;;;;;2.28;2.08;;;;;;;;;;5074495;28;20020;-63
2023/06/28 04:35:30;;;;;;;2.50;2.05;;;;;;;;;;5074386;28;20032;-61
2023/06/28 04:37:56;;;;;;;3.63;2.05;;;;;;;;;;5072675;28;20025;-64
2023/06/28 04:40:21;;;;;;;3.42;2.13;;;;;;;;;;5075506;28;20115;-64
2023/06/28 04:42:50;;;;;;;2.78;1.92;;;;;;;;;;5075361;28;20471;-65
2023/06/28 04:45:16;;;;;;;2.47;2.03;;;;;;;;;;5075265;28;20153;-64
2023/06/28 04:47:41;;;;;;;2.88;2.00;;;;;;;;;;5073905;28;20056;-63
2023/06/28 04:50:07;;;;;;;2.30;2.00;;;;;;;;;;5075363;28;20033;-62
2023/06/28 04:52:33;;;;;;;3.35;2.30;;;;;;;;;;5075001;28;20017;-63
2023/06/28 04:54:58;;;;;;;2.63;1.83;;;;;;;;;;5075082;28;20032;-63
2023/06/28 04:57:24;;;;;;;2.40;1.98;;;;;;;;;;5058157;28;20021;-64
2023/06/28 04:59:49;;;;;;;2.63;2.05;;;;;;;;;;5053154;28;20021;-65
2023/06/28 05:02:15;;;;;;;3.30;2.13;;;;;;;;;;5053498;28;20032;-65
2023/06/28 05:04:40;;;;;;;5.05;2.17;;;;;;;;;;5054919;28;20025;-69
2023/06/28 05:07:07;;;;;;;2.38;1.83;;;;;;;;;;5054767;28;20364;-63
2023/06/28 05:09:32;;;;;;;2.20;1.60;;;;;;;;;;5054639;28;20497;-63
2023/06/28 05:11:58;;;;;;;5.35;2.13;;;;;;;;;;5054642;28;20028;-63
2023/06/28 05:14:24;;;;;;;2.15;1.70;;;;;;;;;;5055077;28;20057;-63
2023/06/28 05:16:49;;;;;;;4.15;1.80;;;;;;;;;;5054686;28;20025;-63
2023/06/28 05:19:15;;;;;;;4.00;1.65;;;;;;;;;;5054700;28;20395;-63
2023/06/28 05:21:40;;;;;;;2.65;1.50;;;;;;;;;;5054989;28;20386;-63
2023/06/28 05:24:05;;;;;;;2.75;1.90;;;;;;;;;;5054594;28;20033;-63
2023/06/28 05:26:31;;;;;;;2.22;1.60;;;;;;;;;;5054567;28;20079;-63
2023/06/28 05:28:56;;;;;;;2.15;1.60;;;;;;;;;;5053930;28;20032;-63
2023/06/28 05:31:21;;;;;;;3.60;1.60;;;;;;;;;;5068939;28;20371;-63
2023/06/28 05:33:47;;;;;;;2.17;1.60;;;;;;;;;;5072551;28;20098;-63
2023/06/28 05:36:14;;;;;;;2.00;1.80;;;;;;;;;;5073202;28;20048;-63
2023/06/28 05:38:40;;;;;;;4.15;1.80;;;;;;;;;;5045116;28;20028;-63
2023/06/28 05:41:15;;;;;;;2.15;1.73;;;;;;;;;;5081687;28;20090;-64
2023/06/28 05:43:44;;;;;;;3.92;1.75;;;;;;;;;;5084990;28;20024;-63
2023/06/28 05:46:10;;;;;;;2.95;1.77;;;;;;;;;;5086080;28;20028;-63
2023/06/28 05:48:36;;;;;;;1.65;1.50;;;;;;;;;;5068999;28;20116;-63
2023/06/28 05:51:02;;;;;;;4.18;1.70;;;;;;;;;;5093883;28;20119;-63
2023/06/28 05:53:29;;;;;;;1.77;1.67;;;;;;;;;;5094260;28;20075;-63
2023/06/28 05:55:54;;;;;;;7.38;3.08;;;;;;;;;;5076495;28;20089;-63
2023/06/28 05:58:20;;;;;;;4.40;1.55;;;;;;;;;;5094685;28;20359;-64
2023/06/28 06:00:45;;;;;;;2.00;1.40;;;;;;;;;;5094057;28;20405;-63
2023/06/28 06:03:10;;;;;;;1.80;1.48;;;;;;;;;;5092795;28;20032;-63
2023/06/28 06:05:39;;;;;;;2.20;1.48;;;;;;;;;;5075973;28;20529;-64
2023/06/28 06:08:04;;;;;;;2.13;1.55;;;;;;;;;;5094315;28;20093;-63
2023/06/28 06:10:30;;;;;;;1.50;1.30;;;;;;;;;;5076311;28;20521;-64
2023/06/28 06:16:30;;;;;;;2.00;1.50;;;;;;;;;;5094033;28;20549;-64
2023/06/28 06:22:31;;;;;;;2.17;1.33;;;;;;;;;;5093949;28;20030;-63
2023/06/28 06:28:31;;;;;;;1.60;1.50;;;;;;;;;;5094006;28;20039;-64
2023/06/28 06:34:59;;;;;;;4.43;1.27;;;;;;;;;;5082043;22;20068;-67
2023/06/28 06:37:24;;;;;;;3.20;1.35;;;;;;;;;;5015988;28;20037;-67
2023/06/28 06:39:50;;;;;;;2.25;1.40;;;;;;;;;;5035091;28;20395;-66
2023/06/28 06:42:15;;;;;;;1.63;1.50;;;;;;;;;;5037991;28;20120;-67
2023/06/28 06:44:41;;;;;;;1.83;1.45;;;;;;;;;;5038189;28;20040;-67
2023/06/28 06:47:06;;;;;;;2.20;1.20;;;;;;;;;;5037633;28;20179;-67
2023/06/28 06:49:32;;;;;;;3.63;1.48;;;;;;;;;;5037804;28;20057;-66
2023/06/28 06:51:57;;;;;;;34.17;7.93;;;;;;;;;;5037811;28;20455;-66
2023/06/28 06:54:24;;;;;;;71.50;14.25;;;;;;;;;;5019814;28;20464;-67
2023/06/28 06:56:50;;;;;;;2.20;1.33;;;;;;;;;;5019822;28;20033;-66
2023/06/28 06:59:16;;;;;;;1.95;1.45;;;;;;;;;;5019669;28;20036;-67
2023/06/28 07:01:41;;;;;;;3.20;1.77;;;;;;;;;;5037663;28;20032;-67
2023/06/28 07:04:07;;;;;;;408.42;78.50;;;;;;;;;;5037285;28;20033;-67
2023/06/28 07:06:32;;;;;;;30.75;6.63;;;;;;;;;;5019606;28;20037;-66
2023/06/28 07:08:57;;;;;;;5.85;2.28;;;;;;;;;;5019399;28;20014;-66
2023/06/28 07:11:22;;;;;;;12.05;3.33;;;;;;;;;;5037167;28;20021;-66
2023/06/28 07:13:48;;;;;;;6.82;2.22;;;;;;;;;;5037166;28;20075;-66
2023/06/28 07:16:13;;;;;;;3.20;1.40;;;;;;;;;;5019747;28;20079;-66
2023/06/28 07:18:39;;;;;;;2.58;1.60;;;;;;;;;;5037339;28;20063;-67
2023/06/28 07:21:05;;;;;;;2.22;1.20;;;;;;;;;;5002940;28;20075;-66
2023/06/28 07:23:30;;;;;;;5.07;1.70;;;;;;;;;;5037228;28;20048;-66
2023/06/28 07:25:55;;;;;;;3.85;1.98;;;;;;;;;;5036914;28;20034;-66
2023/06/28 07:28:21;;;;;;;14.20;2.50;;;;;;;;;;5036753;28;20029;-66
2023/06/28 07:30:53;;;;;;;3.58;1.85;;;;;;;;;;5019501;28;20037;-67
2023/06/28 07:33:18;;;;;;;1.55;1.25;;;;;;;;;;5037324;28;20033;-67
2023/06/28 07:35:44;;;;;;;2.95;1.33;;;;;;;;;;5031596;28;20053;-67
2023/06/28 07:38:09;;;;;;;6.63;1.85;;;;;;;;;;5038832;28;20536;-67
2023/06/28 07:40:34;;;;;;;4.07;1.42;;;;;;;;;;5057148;28;20099;-67
2023/06/28 07:43:02;;;;;;;1.70;1.20;;;;;;;;;;5056565;28;20422;-66
2023/06/28 07:45:28;;;;;;;2.60;1.15;;;;;;;;;;5039285;28;20033;-66
2023/06/28 07:47:53;;;;;;;2.45;1.02;;;;;;;;;;5056626;28;20025;-66
2023/06/28 07:50:20;;;;;;;1.30;1.20;;;;;;;;;;5056029;28;20046;-67
2023/06/28 07:52:46;;;;;;;2.88;1.20;;;;;;;;;;5056367;28;20029;-66
2023/06/28 07:55:11;;;;;;;3.05;1.27;;;;;;;;;;5056259;28;20009;-67
2023/06/28 07:57:36;;;;;;;1.85;1.00;;;;;;;;;;5056598;28;20025;-67
2023/06/28 08:00:04;;;;;;;3.20;1.25;;;;;;;;;;5056805;28;20053;-67
2023/06/28 08:02:32;;;;;;;4.22;1.35;;;;;;;;;;5056202;28;20416;-67
2023/06/28 08:04:58;;;;;;;1.88;1.20;;;;;;;;;;5056101;28;20058;-67
2023/06/28 08:07:24;;;;;;;2.65;1.30;;;;;;;;;;5054868;28;20044;-66
2023/06/28 08:09:49;;;;;;;2.13;1.38;;;;;;;;;;5056284;28;20039;-67
2023/06/28 08:12:14;;;;;;;1.30;1.00;;;;;;;;;;5055977;28;20017;-66
2023/06/28 08:14:40;;;;;;;1.70;1.05;;;;;;;;;;5056221;28;20079;-66
2023/06/28 08:17:06;;;;;;;1.60;0.95;;;;;;;;;;5056420;28;20370;-67
2023/06/28 08:19:31;;;;;;;1.50;0.98;;;;;;;;;;5055852;28;20104;-66
2023/06/28 08:21:58;;;;;;;2.10;1.02;;;;;;;;;;5055831;28;20386;-67
2023/06/28 08:24:23;;;;;;;2.10;1.20;;;;;;;;;;5037945;28;20032;-66
2023/06/28 08:26:48;;;;;;;1.52;1.08;;;;;;;;;;5055705;28;20456;-67
2023/06/28 08:29:15;;;;;;;2.70;1.10;;;;;;;;;;5055885;28;20029;-67
2023/06/28 08:31:41;;;;;;;3.38;1.02;;;;;;;;;;5037784;28;20086;-67
2023/06/28 08:34:06;;;;;;;1.10;1.00;;;;;;;;;;5055547;28;20021;-67
2023/06/28 08:36:31;;;;;;;1.63;0.90;;;;;;;;;;5055399;28;20144;-67
2023/06/28 08:38:57;;;;;;;1.88;1.00;;;;;;;;;;5055505;28;20455;-67
2023/06/28 08:41:23;;;;;;;3.38;1.58;;;;;;;;;;5055733;28;20025;-66
2023/06/28 08:43:50;;;;;;;3.47;1.92;;;;;;;;;;5055448;28;20068;-67
2023/06/28 08:46:16;;;;;;;2.00;1.60;;;;;;;;;;5055340;28;20029;-66
2023/06/28 08:48:43;;;;;;;3.60;1.10;;;;;;;;;;5055248;28;20028;-67
2023/06/28 08:51:09;;;;;;;2.03;1.00;;;;;;;;;;5055535;28;20120;-66
2023/06/28 08:53:35;;;;;;;1.92;1.05;;;;;;;;;;5055194;28;20082;-67
2023/06/28 08:56:01;;;;;;;2.25;1.00;;;;;;;;;;5055419;28;20450;-63
2023/06/28 08:58:26;;;;;;;1.60;1.17;;;;;;;;;;5055114;28;20083;-63
2023/06/28 09:00:52;;;;;;;1.63;0.93;;;;;;;;;;5055064;28;20379;-63
2023/06/28 09:03:18;;;;;;;1.13;0.90;;;;;;;;;;5036775;28;20111;-63
2023/06/28 09:05:44;;;;;;;2.45;1.00;;;;;;;;;;5037090;28;20063;-63
2023/06/28 09:08:10;;;;;;;1.52;1.08;;;;;;;;;;5055122;28;20033;-63
2023/06/28 09:10:35;;;;;;;3.40;1.20;;;;;;;;;;5053592;28;20036;-63
2023/06/28 09:13:01;;;;;;;3.20;1.00;;;;;;;;;;5055061;28;20052;-63
2023/06/28 09:15:27;;;;;;;3.15;1.10;;;;;;;;;;5053482;28;20063;-63
2023/06/28 09:17:53;;;;;;;1.67;1.00;;;;;;;;;;5055018;28;20086;-63
2023/06/28 09:20:19;;;;;;;2.90;1.25;;;;;;;;;;5055230;28;20025;-63
2023/06/28 09:22:55;;;;;;;2.38;0.80;;;;;;;;;;5054909;28;20459;-63
2023/06/28 09:25:21;;;;;;;0.88;0.88;;;;;;;;;;5036732;28;20037;-63
2023/06/28 09:27:46;;;;;;;3.72;0.90;;;;;;;;;;5055002;28;20021;-63
2023/06/28 09:30:35;;;;;;;2.28;0.90;;;;;;;;;;5044455;28;20079;-64
2023/06/28 09:33:03;;;;;;;1.83;0.90;;;;;;;;;;5054747;28;20029;-63
2023/06/28 09:35:29;;;;;;;1.90;1.08;;;;;;;;;;5085445;22;20151;-66
2023/06/28 09:37:57;;;;;;;1.83;1.10;;;;;;;;;;5069655;23;20114;-66
2023/06/28 09:40:23;;;;;;;1.52;0.98;;;;;;;;;;5079691;23;20059;-64
2023/06/28 09:42:49;;;;;;;1.98;1.20;;;;;;;;;;5074237;28;20379;-63
2023/06/28 09:45:36;;;;;;;1.27;0.75;;;;;;;;;;5072947;28;20115;-63
2023/06/28 09:48:03;;;;;;;1.23;0.90;;;;;;;;;;5072914;28;20043;-63
2023/06/28 09:50:47;;;;;;;1.10;0.90;;;;;;;;;;5074430;28;20553;-63
2023/06/28 09:53:14;;;;;;;1.70;0.90;;;;;;;;;;5072867;28;20115;-63
2023/06/28 09:55:40;;;;;;;1.27;0.77;;;;;;;;;;5074356;28;20013;-63
2023/06/28 09:58:15;;;;;;;1.48;0.90;;;;;;;;;;5074268;28;20028;-63
2023/06/28 10:00:41;;;;;;;1.48;1.08;;;;;;;;;;5074253;28;20039;-63
2023/06/28 10:03:10;;;;;;;1.98;1.00;;;;;;;;;;5074229;28;20036;-63
2023/06/28 10:05:38;;;;;;;2.50;0.90;;;;;;;;;;5072683;28;20056;-63
2023/06/28 10:08:06;;;;;;;3.67;1.10;;;;;;;;;;5074092;28;20466;-63
2023/06/28 10:10:33;;;;;;;4.82;1.15;;;;;;;;;;5073874;28;20043;-63
2023/06/28 10:12:59;;;;;;;2.45;1.20;;;;;;;;;;5073772;28;20032;-63
2023/06/28 10:15:25;;;;;;;1.63;0.95;;;;;;;;;;5073796;28;20028;-63
2023/06/28 10:17:51;;;;;;;1.60;0.90;;;;;;;;;;5073796;28;20026;-63
2023/06/28 10:20:16;;;;;;;1.83;1.10;;;;;;;;;;5072466;28;20081;-63
2023/06/28 10:22:42;;;;;;;1.83;1.17;;;;;;;;;;5072822;28;20155;-63
2023/06/28 10:25:08;;;;;;;2.40;1.10;;;;;;;;;;5073688;28;20027;-63
2023/06/28 10:27:35;;;;;;;2.20;0.93;;;;;;;;;;5073666;28;20056;-63
2023/06/28 10:30:00;;;;;;;3.30;1.20;;;;;;;;;;5072284;28;20395;-63
2023/06/28 10:32:25;;;;;;;2.05;1.10;;;;;;;;;;5073893;28;20028;-63
2023/06/28 10:34:51;;;;;;;2.50;1.10;;;;;;;;;;5073626;28;20032;-63
2023/06/28 10:37:20;;;;;;;2.03;1.00;;;;;;;;;;5073538;28;20451;-63
2023/06/28 10:39:46;;;;;;;1.52;0.95;;;;;;;;;;5081811;28;20036;-63
2023/06/28 10:42:11;;;;;;;2.55;1.00;;;;;;;;;;5075725;28;20024;-63
2023/06/28 10:44:49;;;;;;;1.23;1.00;;;;;;;;;;5042482;28;20478;-64
2023/06/28 10:47:16;;;;;;;1.20;1.10;;;;;;;;;;5093939;28;20035;-63
2023/06/28 10:49:41;;;;;;;1.30;1.20;;;;;;;;;;5094152;28;20036;-63
2023/06/28 10:52:13;;;;;;;1.77;1.20;;;;;;;;;;5093565;28;20074;-63
2023/06/28 10:54:39;;;;;;;1.60;1.50;;;;;;;;;;5093907;28;20059;-63
2023/06/28 10:57:08;;;;;;;1.30;1.13;;;;;;;;;;5093549;28;20447;-63
2023/06/28 10:59:35;;;;;;;1.52;1.23;;;;;;;;;;5093547;28;20538;-63
2023/06/28 11:02:00;;;;;;;2.97;1.13;;;;;;;;;;5093540;28;20032;-63
2023/06/28 11:04:26;;;;;;;2.00;1.00;;;;;;;;;;5094000;28;20040;-63
2023/06/28 11:07:03;;;;;;;2.80;1.10;;;;;;;;;;5058697;28;20032;-64
2023/06/28 11:09:29;;;;;;;1.45;0.98;;;;;;;;;;5093681;28;20151;-63
2023/06/28 11:11:56;;;;;;;1.65;1.30;;;;;;;;;;5075757;28;20460;-63
2023/06/28 11:14:22;;;;;;;1.60;1.05;;;;;;;;;;5075438;28;20458;-63
2023/06/28 11:16:48;;;;;;;1.63;0.98;;;;;;;;;;5093399;28;20097;-63
2023/06/28 11:19:14;;;;;;;1.42;0.88;;;;;;;;;;5093395;28;20036;-63
2023/06/28 11:21:40;;;;;;;3.42;1.00;;;;;;;;;;5103781;22;20433;-67
2023/06/28 11:24:06;;;;;;;1.35;1.00;;;;;;;;;;5093573;28;20043;-63
2023/06/28 11:26:33;;;;;;;1.83;0.98;;;;;;;;;;5096301;28;20473;-63
2023/06/28 11:28:59;;;;;;;1.48;1.13;;;;;;;;;;5097012;28;20066;-63
2023/06/28 11:31:39;;;;;;;1.83;1.08;;;;;;;;;;5097341;28;20048;-63
2023/06/28 11:34:05;;;;;;;1.83;1.10;;;;;;;;;;5096965;28;20028;-63
2023/06/28 11:36:31;;;;;;;1.15;1.08;;;;;;;;;;5096956;28;20028;-63
2023/06/28 11:38:56;;;;;;;1.30;0.80;;;;;;;;;;5096912;28;20490;-63
2023/06/28 11:41:21;;;;;;;1.92;1.10;;;;;;;;;;5097168;28;20032;-63
2023/06/28 11:43:47;;;;;;;1.23;1.02;;;;;;;;;;5078645;28;20031;-63
2023/06/28 11:46:21;;;;;;;0.93;0.82;;;;;;;;;;5078630;28;20039;-63
2023/06/28 11:48:47;;;;;;;3.40;1.10;;;;;;;;;;5096942;28;20119;-63
2023/06/28 11:51:13;;;;;;;2.38;1.10;;;;;;;;;;5097253;28;20043;-63
2023/06/28 11:53:38;;;;;;;1.35;0.95;;;;;;;;;;5096612;28;20039;-63
2023/06/28 11:56:04;;;;;;;1.38;0.68;;;;;;;;;;5096839;28;20016;-63
2023/06/28 11:58:30;;;;;;;3.08;1.05;;;;;;;;;;5096584;28;20032;-63
2023/06/28 12:00:55;;;;;;;1.08;0.77;;;;;;;;;;5078439;28;20417;-63
2023/06/28 12:03:30;;;;;;;2.63;1.00;;;;;;;;;;5097274;28;20036;-63
2023/06/28 12:05:55;;;;;;;0.75;0.75;;;;;;;;;;5096687;28;20032;-64
2023/06/28 12:08:21;;;;;;;1.30;1.02;;;;;;;;;;5096297;28;20416;-63
2023/06/28 12:10:46;;;;;;;3.83;1.13;;;;;;;;;;5096306;28;20023;-63
2023/06/28 12:13:21;;;;;;;1.70;1.00;;;;;;;;;;5096529;28;20550;-63
2023/06/28 12:15:49;;;;;;;1.10;1.10;;;;;;;;;;5096180;28;20454;-63
2023/06/28 12:18:15;;;;;;;1.48;0.93;;;;;;;;;;5096745;28;20067;-63
2023/06/28 12:20:40;;;;;;;2.65;0.95;;;;;;;;;;5077748;28;20059;-63
2023/06/28 12:23:12;;;;;;;1.13;0.80;;;;;;;;;;5077934;28;20039;-63
2023/06/28 12:25:41;;;;;;;1.85;1.05;;;;;;;;;;5061173;28;20059;-63
2023/06/28 12:28:08;;;;;;;1.35;0.95;;;;;;;;;;5061627;28;20089;-63
2023/06/28 12:30:34;;;;;;;2.63;1.08;;;;;;;;;;5077926;28;20047;-63
2023/06/28 12:33:04;;;;;;;2.13;1.20;;;;;;;;;;5095871;28;20506;-63
2023/06/28 12:35:30;;;;;;;2.13;1.00;;;;;;;;;;5095818;28;20055;-63
2023/06/28 12:37:56;;;;;;;3.35;1.27;;;;;;;;;;5076529;28;20063;-63
2023/06/28 12:40:24;;;;;;;1.52;1.08;;;;;;;;;;5096024;28;20035;-63
2023/06/28 12:43:08;;;;;;;3.50;1.23;;;;;;;;;;5077588;28;20070;-63
2023/06/28 12:45:33;;;;;;;1.23;1.10;;;;;;;;;;5096182;28;20120;-63
2023/06/28 12:47:58;;;;;;;1.88;1.45;;;;;;;;;;5095528;28;20470;-63
2023/06/28 12:50:25;;;;;;;3.38;1.40;;;;;;;;;;5095845;28;20134;-63
2023/06/28 12:52:50;;;;;;;0.95;0.90;;;;;;;;;;5095816;28;20374;-63
2023/06/28 12:55:17;;;;;;;1.05;0.85;;;;;;;;;;5077480;28;20028;-63
2023/06/28 12:57:42;;;;;;;1.65;1.20;;;;;;;;;;5095659;28;20027;-63
2023/06/28 13:00:08;;;;;;;1.42;0.82;;;;;;;;;;5095351;28;20032;-63
2023/06/28 13:02:33;;;;;;;3.08;0.93;;;;;;;;;;5095542;28;20026;-63
2023/06/28 13:04:58;;;;;;;0.82;0.80;;;;;;;;;;5095265;28;20397;-63
2023/06/28 13:07:24;;;;;;;1.90;0.88;;;;;;;;;;5076975;28;20036;-63
2023/06/28 13:09:49;;;;;;;1.40;0.93;;;;;;;;;;5095025;28;20034;-64
2023/06/28 13:12:14;;;;;;;2.28;0.93;;;;;;;;;;5094884;28;20085;-63
2023/06/28 13:14:40;;;;;;;1.10;0.98;;;;;;;;;;5094805;28;20027;-63
2023/06/28 13:17:06;;;;;;;1.13;1.02;;;;;;;;;;5094929;28;20035;-63
2023/06/28 13:19:33;;;;;;;1.08;1.00;;;;;;;;;;5076608;28;20370;-63
2023/06/28 13:21:58;;;;;;;2.83;0.98;;;;;;;;;;5094399;28;20092;-63
2023/06/28 13:24:24;;;;;;;1.17;0.80;;;;;;;;;;5094562;28;20055;-63
2023/06/28 13:26:50;;;;;;;4.10;1.00;;;;;;;;;;5076470;28;20378;-63
2023/06/28 13:29:17;;;;;;;2.78;1.00;;;;;;;;;;5094443;28;20032;-63
2023/06/28 13:31:43;;;;;;;3.63;1.05;;;;;;;;;;5094458;28;20489;-63
2023/06/28 15:31:34;;;;;;;2.33;1.20;;;;;;;;;;5070535;28;20482;-65
2023/06/28 15:34:00;;;;;;;2.20;1.00;;;;;;;;;;5070096;28;20045;-67
2023/06/28 15:36:32;;;;;;;1.85;1.10;;;;;;;;;;5070068;28;20013;-64
2023/06/28 15:38:57;;;;;;;0.98;0.98;;;;;;;;;;5070020;28;20102;-64
2023/06/28 15:41:22;;;;;;;1.58;1.00;;;;;;;;;;5068521;28;20483;-64
2023/06/28 15:43:48;;;;;;;1.13;0.90;;;;;;;;;;5070175;28;20476;-64
2023/06/28 15:46:15;;;;;;;1.52;1.20;;;;;;;;;;5069894;28;20025;-64
2023/06/28 15:48:40;;;;;;;3.58;1.33;;;;;;;;;;5069879;28;20037;-64
2023/06/28 15:51:09;;;;;;;1.42;1.00;;;;;;;;;;5069748;28;20533;-64
2023/06/28 15:53:34;;;;;;;2.47;1.25;;;;;;;;;;5068537;28;20037;-60
2023/06/28 15:56:00;;;;;;;2.33;1.40;;;;;;;;;;5069978;28;20020;-61
2023/06/28 15:58:26;;;;;;;1.85;1.20;;;;;;;;;;5069806;28;20033;-60
2023/06/28 16:00:56;;;;;;;1.60;1.38;;;;;;;;;;5069567;28;20024;-61
2023/06/28 16:03:21;;;;;;;2.88;1.13;;;;;;;;;;5068657;28;20013;-61
2023/06/28 16:05:53;;;;;;;2.78;1.27;;;;;;;;;;5069307;28;20020;-61
2023/06/28 16:08:19;;;;;;;1.85;1.13;;;;;;;;;;5069380;28;20476;-62
2023/06/28 16:10:45;;;;;;;1.70;1.60;;;;;;;;;;5068935;28;20063;-60
2023/06/28 16:13:13;;;;;;;1.52;1.42;;;;;;;;;;5069134;28;20040;-61
2023/06/28 16:15:39;;;;;;;1.60;1.50;;;;;;;;;;5068874;28;20029;-59
2023/06/28 16:18:05;;;;;;;2.05;1.73;;;;;;;;;;5069071;28;20480;-61
2023/06/28 16:20:34;;;;;;;2.10;1.70;;;;;;;;;;5069065;28;20033;-60
2023/06/28 16:23:00;;;;;;;1.80;1.60;;;;;;;;;;5069157;28;20031;-61
2023/06/28 16:25:25;;;;;;;2.22;1.60;;;;;;;;;;5067432;28;20565;-61
2023/06/28 16:27:51;;;;;;;2.03;1.80;;;;;;;;;;5066296;28;20082;-61
2023/06/28 16:30:16;;;;;;;1.63;1.52;;;;;;;;;;5065737;28;20044;-60
2023/06/28 16:32:42;;;;;;;1.73;1.63;;;;;;;;;;5054569;28;20029;-64
2023/06/28 16:35:07;;;;;;;1.80;1.63;;;;;;;;;;5054779;28;20049;-64
2023/06/28 16:37:33;;;;;;;2.45;1.63;;;;;;;;;;5055563;28;20032;-61
2023/06/28 16:39:58;;;;;;;2.17;1.80;;;;;;;;;;5054849;28;20024;-60
2023/06/28 16:42:24;;;;;;;1.50;1.40;;;;;;;;;;5055034;28;20025;-61
2023/06/28 16:44:50;;;;;;;1.95;1.70;;;;;;;;;;5054086;28;20388;-61
2023/06/28 16:47:22;;;;;;;3.92;1.80;;;;;;;;;;5054893;28;20025;-62
2023/06/28 16:49:48;;;;;;;2.90;1.75;;;;;;;;;;5054931;28;20163;-62
2023/06/28 16:52:16;;;;;;;2.53;1.65;;;;;;;;;;5054295;28;20036;-61
2023/06/28 16:54:41;;;;;;;2.58;1.55;;;;;;;;;;5052969;28;20120;-61